Time;durP1;ratioP1;P1;durP2;ratioP2;P2;SDS_P1;SDS_P2;PMS_P1;PMS_P2;Temp;Humidity;BMP_temperature;BMP_pressure;BME280_temperature;BME280_humidity;BME280_pressure;Samples;Min_cycle;Max_cycle;Signal;HPM_P1;HPM_P2
2022/05/16 00:01:48;;;;;;;6.60;5.25;;;;;;;20.83;68.59;101720.03;5089437;28;20031;-82
2022/05/16 00:04:14;;;;;;;6.97;5.45;;;;;;;20.82;68.68;101715.56;5090511;28;20036;-81
2022/05/16 00:06:40;;;;;;;5.72;5.10;;;;;;;20.74;68.82;101699.47;5090389;28;20055;-81
2022/05/16 00:09:05;;;;;;;5.75;5.07;;;;;;;20.74;68.62;101703.84;5090653;28;20489;-82
2022/05/16 00:11:31;;;;;;;5.97;5.00;;;;;;;20.80;68.53;101711.09;5089169;28;20040;-82
2022/05/16 00:13:57;;;;;;;7.65;5.10;;;;;;;20.72;68.87;101702.91;5088325;28;20587;-82
2022/05/16 00:16:23;;;;;;;5.65;4.95;;;;;;;20.78;68.67;101702.19;5091634;28;20104;-82
2022/05/16 00:18:49;;;;;;;5.80;5.20;;;;;;;20.67;68.68;101684.19;5071187;28;20134;-82
2022/05/16 00:21:15;;;;;;;5.97;4.95;;;;;;;20.76;68.63;101696.81;5090471;28;20028;-82
2022/05/16 00:23:41;;;;;;;5.80;5.05;;;;;;;20.68;68.68;101682.44;5088605;28;20059;-82
2022/05/16 00:26:06;;;;;;;7.43;4.63;;;;;;;20.58;68.52;101667.16;5092962;28;20124;-82
2022/05/16 00:28:32;;;;;;;7.35;5.05;;;;;;;20.67;68.70;101693.94;5093334;28;20472;-82
2022/05/16 00:30:57;;;;;;;7.38;5.22;;;;;;;20.74;68.63;101698.53;5075147;28;20556;-82
2022/05/16 00:33:23;;;;;;;5.70;5.10;;;;;;;20.73;68.62;101702.06;5075635;28;20454;-82
2022/05/16 00:35:49;;;;;;;6.60;5.43;;;;;;;20.70;68.66;101696.66;5075593;28;20027;-82
2022/05/16 00:38:14;;;;;;;8.57;5.15;;;;;;;20.72;68.62;101711.78;5078455;28;20115;-83
2022/05/16 00:40:40;;;;;;;5.93;4.68;;;;;;;20.65;68.80;101701.84;5098931;28;20406;-82
2022/05/16 00:43:08;;;;;;;5.57;4.93;;;;;;;20.64;68.59;101693.88;5094866;28;20039;-83
2022/05/16 00:45:34;;;;;;;6.35;4.78;;;;;;;20.72;68.79;101711.78;5092318;28;20031;-82
2022/05/16 00:48:00;;;;;;;;;;;;;;;20.78;68.80;101710.16;5079949;28;20024;-82
2022/05/16 00:50:27;;;;;;;6.40;5.32;;;;;;;20.64;68.53;101694.75;5091278;28;19916;-82
2022/05/16 00:52:53;;;;;;;6.65;4.90;;;;;;;20.66;68.60;101706.31;5074521;28;20039;-82
2022/05/16 00:55:29;;;;;;;5.70;4.60;;;;;;;20.70;68.46;101708.19;5075867;28;20031;-82
2022/05/16 00:57:58;;;;;;;7.10;4.85;;;;;;;20.64;68.32;101693.88;5074059;28;20027;-83
2022/05/16 01:00:29;;;;;;;5.53;4.53;;;;;;;20.68;68.64;101704.59;5085167;28;20017;-82
2022/05/16 01:05:45;;;;;;;7.75;4.95;;;;;;;20.60;68.47;101687.56;5074959;28;20028;-81
2022/05/16 01:08:14;;;;;;;6.45;4.65;;;;;;;20.58;68.55;101683.06;5092625;28;20028;-82
2022/05/16 01:10:40;;;;;;;7.15;4.93;;;;;;;20.64;68.50;101699.16;5076673;28;20043;-82
2022/05/16 01:13:07;;;;;;;7.60;4.70;;;;;;;20.63;68.49;101692.94;5076298;28;20107;-83
2022/05/16 01:15:36;;;;;;;5.38;4.88;;;;;;;20.55;68.71;101678.53;5092970;28;20028;-82
2022/05/16 01:18:08;;;;;;;6.63;4.85;;;;;;;20.63;68.63;101695.59;5075668;28;20078;-82
2022/05/16 01:20:46;;;;;;;5.75;5.15;;;;;;;20.62;68.65;101698.22;5094089;28;20101;-82
2022/05/16 01:23:14;;;;;;;5.32;4.78;;;;;;;20.62;68.55;101700.88;5091988;28;20048;-82
2022/05/16 01:25:40;;;;;;;5.40;4.90;;;;;;;20.63;68.48;101702.66;5093431;28;20020;-82
2022/05/16 01:28:05;;;;;;;5.90;4.90;;;;;;;20.41;68.42;101662.22;5072891;28;20051;-82
2022/05/16 01:30:40;;;;;;;6.43;5.00;;;;;;;20.45;68.67;101672.06;5091289;28;20035;-82
2022/05/16 01:33:05;;;;;;;5.00;4.50;;;;;;;20.59;68.50;101693.72;5073518;28;20036;-82
2022/05/16 01:35:32;;;;;;;7.07;4.13;;;;;;;20.51;68.55;101680.22;5075103;28;20027;-82
2022/05/16 01:41:05;;;;;;;5.80;4.90;;;;;;;20.42;68.62;101671.09;5012762;28;20461;-82
2022/05/16 01:43:40;;;;;;;5.07;4.57;;;;;;;20.45;68.76;101680.03;5076350;28;20067;-82
2022/05/16 01:46:08;;;;;;;5.60;4.57;;;;;;;20.56;68.50;101700.66;5076049;28;20020;-82
2022/05/16 01:48:34;;;;;;;8.32;4.80;;;;;;;20.54;68.62;101698.84;5073814;28;20036;-82
2022/05/16 01:51:06;;;;;;;4.93;4.43;;;;;;;20.44;68.66;101680.00;5076283;28;20583;-82
2022/05/16 01:53:32;;;;;;;5.32;4.65;;;;;;;20.43;68.54;101679.09;5091152;28;20027;-82
2022/05/16 01:55:58;;;;;;;5.65;4.80;;;;;;;20.52;68.38;101691.72;5073365;28;20059;-82
2022/05/16 01:58:24;;;;;;;6.55;4.53;;;;;;;20.56;68.23;101700.66;5073736;28;20472;-82
2022/05/16 02:00:51;;;;;;;5.55;4.95;;;;;;;20.47;68.37;101693.34;5073775;28;20129;-82
2022/05/16 02:03:17;;;;;;;5.03;4.53;;;;;;;20.50;68.34;101702.28;5073465;28;20024;-82
2022/05/16 02:05:43;;;;;;;6.43;4.35;;;;;;;20.50;68.32;101701.38;5092726;28;20081;-82
2022/05/16 02:08:09;;;;;;;6.25;4.80;;;;;;;20.39;68.37;101684.28;5074656;28;20103;-83
2022/05/16 02:10:35;;;;;;;5.38;4.47;;;;;;;20.46;68.40;101700.41;5073355;28;20041;-82
2022/05/16 02:13:03;;;;;;;6.57;4.82;;;;;;;20.37;68.39;101683.34;5057229;28;20389;-82
2022/05/16 02:15:31;;;;;;;4.75;4.25;;;;;;;20.47;68.39;101706.63;5092479;28;20028;-83
2022/05/16 02:17:56;;;;;;;4.88;4.35;;;;;;;20.46;68.31;101711.00;5091329;28;21694;-83
2022/05/16 02:20:22;;;;;;;4.57;4.18;;;;;;;20.47;68.24;101696.91;5074437;28;20024;-82
2022/05/16 02:25:36;;;;;;;6.20;4.53;;;;;;;20.49;68.38;101716.41;5063192;28;20808;-83
2022/05/16 02:28:03;;;;;;;6.30;4.32;;;;;;;20.45;68.11;101716.28;5073269;28;20031;-83
2022/05/16 02:30:29;;;;;;;5.22;4.47;;;;;;;20.48;68.34;101724.31;5093566;28;20038;-82
2022/05/16 02:32:55;;;;;;;4.72;4.32;;;;;;;20.45;68.18;101724.25;5073562;28;20028;-82
2022/05/16 02:35:21;;;;;;;4.95;4.55;;;;;;;20.39;68.14;101714.34;5074090;28;20032;-81
2022/05/16 02:37:47;;;;;;;7.05;4.55;;;;;;;20.45;67.92;101718.94;5075444;28;20020;-82
2022/05/16 02:40:13;;;;;;;4.82;4.43;;;;;;;20.39;68.04;101717.00;5090690;28;20066;-82
2022/05/16 02:42:39;;;;;;;5.03;4.47;;;;;;;20.45;67.96;101726.91;5093300;28;20059;-82
2022/05/16 02:45:05;;;;;;;4.53;4.13;;;;;;;20.36;68.23;101716.00;5073646;28;20116;-81
2022/05/16 02:47:31;;;;;;;4.82;4.32;;;;;;;20.37;68.13;101712.50;5091625;28;20043;-81
2022/05/16 02:49:56;;;;;;;4.60;4.20;;;;;;;20.34;68.07;101705.38;5084306;28;20028;-82
2022/05/16 02:52:22;;;;;;;5.55;4.50;;;;;;;20.44;68.17;101730.41;5092973;28;20059;-82
2022/05/16 02:54:48;;;;;;;4.75;4.35;;;;;;;20.44;68.06;101728.63;5091245;28;20508;-82
2022/05/16 02:57:13;;;;;;;4.90;4.30;;;;;;;20.39;68.03;101724.06;5092456;28;20407;-81
2022/05/16 02:59:39;;;;;;;5.38;4.88;;;;;;;20.39;68.11;101724.06;5072116;28;20085;-83
2022/05/16 03:02:07;;;;;;;5.25;4.75;;;;;;;20.41;68.11;101727.66;5090887;28;20479;-81
2022/05/16 03:04:34;;;;;;;4.70;4.30;;;;;;;20.31;67.95;101710.56;5072822;28;20032;-82
2022/05/16 03:06:59;;;;;;;5.68;4.90;;;;;;;20.36;68.07;101729.28;5072279;28;20028;-83
2022/05/16 03:09:27;;;;;;;5.10;4.60;;;;;;;20.25;68.06;101707.75;5070556;28;20031;-83
2022/05/16 03:11:53;;;;;;;4.80;4.28;;;;;;;20.30;67.67;101720.28;5089910;28;20123;-83
2022/05/16 03:14:20;;;;;;;6.05;4.85;;;;;;;20.21;67.81;101713.81;5091387;28;20043;-82
2022/05/16 03:16:46;;;;;;;5.32;4.20;;;;;;;20.37;67.84;101737.28;5072233;28;20028;-82
2022/05/16 03:19:12;;;;;;;5.38;4.40;;;;;;;20.31;67.62;101726.50;5073185;28;20406;-82
2022/05/16 03:21:37;;;;;;;;;;;;;;;20.40;67.76;101737.34;5072591;28;20028;-83
2022/05/16 03:24:04;;;;;;;4.70;4.20;;;;;;;20.33;67.81;101738.03;5090256;28;19919;-82
2022/05/16 03:26:29;;;;;;;4.47;4.00;;;;;;;20.28;67.99;101737.03;5089715;28;20107;-82
2022/05/16 03:28:55;;;;;;;4.32;3.92;;;;;;;20.09;67.87;101709.06;5089925;28;20026;-82
2022/05/16 03:31:21;;;;;;;4.40;4.00;;;;;;;20.26;68.09;101744.94;5070375;28;20469;-82
2022/05/16 03:33:46;;;;;;;4.50;4.10;;;;;;;20.30;67.83;101751.22;5070824;28;20059;-82
2022/05/16 03:36:12;;;;;;;5.07;4.38;;;;;;;20.18;67.58;101733.19;5090719;28;20039;-82
2022/05/16 03:41:22;;;;;;;6.78;4.78;;;;;;;20.14;67.82;101733.94;5090651;28;20039;-82
2022/05/16 03:43:47;;;;;;;4.90;4.40;;;;;;;20.18;67.53;101743.78;5071688;28;20028;-82
2022/05/16 03:46:14;;;;;;;4.97;4.28;;;;;;;20.07;67.62;101716.94;5072619;28;20078;-82
2022/05/16 03:48:40;;;;;;;5.78;4.40;;;;;;;20.26;67.47;101760.84;5071526;28;20696;-82
2022/05/16 03:51:07;;;;;;;4.85;4.35;;;;;;;20.25;67.68;101756.38;5072259;28;20035;-82
2022/05/16 03:53:43;;;;;;;4.75;4.22;;;;;;;20.22;67.66;101756.28;5072912;28;20473;-82
2022/05/16 03:56:08;;;;;;;4.30;3.90;;;;;;;20.16;67.60;101742.84;5057608;28;20028;-81
2022/05/16 03:58:34;;;;;;;5.10;4.38;;;;;;;20.23;67.60;101757.19;5072736;28;20047;-82
2022/05/16 04:01:00;;;;;;;5.07;4.68;;;;;;;20.22;67.58;101758.94;5088996;28;20032;-82
2022/05/16 04:03:26;;;;;;;4.63;3.97;;;;;;;20.17;67.66;101759.66;5089879;28;20503;-82
2022/05/16 04:05:52;;;;;;;4.70;4.22;;;;;;;20.21;67.76;101769.50;5090313;28;20036;-82
2022/05/16 04:08:17;;;;;;;5.72;4.45;;;;;;;20.23;67.47;101767.81;5071505;28;20403;-83
2022/05/16 04:10:43;;;;;;;4.70;4.03;;;;;;;20.21;67.67;101773.03;5056762;28;20105;-83
2022/05/16 04:13:09;;;;;;;6.60;3.95;;;;;;;20.21;67.88;101775.69;5089527;28;20507;-83
2022/05/16 04:15:34;;;;;;;5.35;4.30;;;;;;;20.11;67.80;101763.94;5091894;28;20503;-82
2022/05/16 04:18:00;;;;;;;4.88;4.30;;;;;;;20.21;67.81;101783.66;5074775;28;20074;-82
2022/05/16 04:20:26;;;;;;;5.82;4.13;;;;;;;19.97;67.79;101741.38;5092752;28;20062;-80
2022/05/16 04:22:52;;;;;;;4.43;4.03;;;;;;;20.17;67.83;101788.81;5110904;28;20032;-81
2022/05/16 04:25:19;;;;;;;4.47;4.07;;;;;;;20.20;67.83;101780.97;5098739;28;20035;-81
2022/05/16 04:27:45;;;;;;;4.57;4.18;;;;;;;20.17;67.62;101784.44;5072972;28;20119;-82
2022/05/16 04:30:11;;;;;;;4.38;3.95;;;;;;;20.16;67.83;101787.94;5090125;28;20190;-81
2022/05/16 04:32:37;;;;;;;5.15;4.60;;;;;;;20.07;67.76;101777.06;5072261;28;20040;-82
2022/05/16 04:35:04;;;;;;;4.60;4.20;;;;;;;20.14;67.87;101784.34;5088869;28;20050;-83
2022/05/16 04:37:32;;;;;;;4.82;4.10;;;;;;;20.05;67.84;101779.66;5067778;28;20088;-84
2022/05/16 04:39:59;;;;;;;6.18;4.47;;;;;;;20.13;68.07;101791.41;5089829;28;20028;-84
2022/05/16 04:42:40;;;;;;;5.85;4.22;;;;;;;20.02;67.94;101765.38;5090133;28;20035;-84
2022/05/16 04:45:27;;;;;;;5.53;4.50;;;;;;;19.86;67.96;101737.50;5074917;28;20024;-84
2022/05/16 04:47:55;;;;;;;;;;;;;;;20.19;67.92;101797.72;5055878;28;20024;-84
2022/05/16 04:50:28;;;;;;;4.50;4.10;;;;;;;20.11;67.99;101798.41;5071210;28;20319;-84
2022/05/16 04:52:55;;;;;;;4.80;4.30;;;;;;;20.09;68.09;101796.56;5089116;28;20025;-84
2022/05/16 04:55:21;;;;;;;4.88;4.38;;;;;;;20.06;68.26;101792.03;5077873;28;20027;-84
2022/05/16 04:57:47;;;;;;;5.28;4.78;;;;;;;19.99;68.27;101775.91;5069950;28;20043;-84
2022/05/16 05:00:14;;;;;;;5.57;4.95;;;;;;;20.05;68.36;101786.72;5075762;28;20028;-88
2022/05/16 05:02:40;;;;;;;5.93;5.32;;;;;;;20.09;68.42;101786.84;5102451;28;20110;-89
2022/05/16 05:05:07;;;;;;;6.68;5.38;;;;;;;20.00;67.96;101781.28;5096820;28;20146;-89
2022/05/16 05:07:33;;;;;;;5.68;4.97;;;;;;;19.91;68.37;101768.59;5074738;28;20043;-88
2022/05/16 05:15:26;;;;;;;5.72;4.43;;;;;;;19.97;68.83;101786.47;5095282;28;20039;-88
2022/05/16 05:17:52;;;;;;;7.20;4.78;;;;;;;20.02;68.44;101795.44;5094937;28;20048;-87
2022/05/16 05:20:21;;;;;;;7.22;6.05;;;;;;;19.95;68.78;101788.16;5081622;28;20027;-91
2022/05/16 05:22:48;;;;;;;9.20;6.55;;;;;;;19.98;68.87;101797.94;5095516;28;20024;-89
2022/05/16 05:25:18;;;;;;;8.18;6.35;;;;;;;20.02;68.56;101802.50;5077596;28;20131;-89
2022/05/16 05:27:49;;;;;;;9.68;5.78;;;;;;;20.01;68.85;101798.97;5077408;28;20097;-90
2022/05/16 05:30:18;;;;;;;10.30;5.32;;;;;;;20.00;68.69;101794.53;5091898;28;20545;-82
2022/05/16 05:32:44;;;;;;;8.40;5.35;;;;;;;19.89;68.77;101772.06;5076726;28;20029;-82
2022/05/16 05:35:10;;;;;;;6.82;5.30;;;;;;;19.93;68.62;101782.78;5079261;28;20020;-82
2022/05/16 05:37:35;;;;;;;;;;;;;;;20.07;68.73;101798.25;5104823;28;20051;-82
2022/05/16 05:40:04;;;;;;;6.05;5.30;;;;;;;20.00;68.64;101796.25;5107999;28;19916;-81
2022/05/16 05:42:30;;;;;;;8.32;5.55;;;;;;;20.05;68.54;101802.63;5096392;28;20046;-81
2022/05/16 05:44:57;;;;;;;7.43;5.85;;;;;;;20.02;68.86;101798.09;5096747;28;20112;-81
2022/05/16 05:47:23;;;;;;;7.03;5.40;;;;;;;19.97;68.90;101797.06;5104291;28;20035;-81
2022/05/16 05:49:48;;;;;;;6.53;4.85;;;;;;;20.02;68.83;101802.50;5095737;28;20028;-81
2022/05/16 05:52:17;;;;;;;8.00;5.80;;;;;;;20.02;68.64;101808.69;5103988;28;20407;-81
2022/05/16 05:54:46;;;;;;;6.07;5.43;;;;;;;19.95;68.72;101793.47;5105383;28;20037;-81
2022/05/16 05:57:13;;;;;;;6.22;5.13;;;;;;;20.02;68.79;101810.47;5072248;28;20221;-82
2022/05/16 05:59:39;;;;;;;6.32;5.20;;;;;;;20.04;68.76;101808.75;5077431;28;20036;-82
2022/05/16 06:02:05;;;;;;;;;;;;;;;20.06;68.66;101807.94;5084463;28;20032;-83
2022/05/16 06:04:31;;;;;;;6.43;4.63;;;;;;;20.01;68.82;101809.56;5106860;28;19919;-82
2022/05/16 06:06:57;;;;;;;5.40;4.30;;;;;;;20.01;68.66;101803.38;5093772;28;20024;-82
2022/05/16 06:09:23;;;;;;;4.25;3.85;;;;;;;20.01;68.82;101812.22;5092274;28;20073;-82
2022/05/16 06:11:49;;;;;;;5.13;4.30;;;;;;;19.91;68.60;101780.94;5072058;28;20478;-82
2022/05/16 06:14:15;;;;;;;4.78;4.38;;;;;;;20.04;68.75;101799.03;5076133;28;20055;-82
2022/05/16 06:16:41;;;;;;;4.70;4.15;;;;;;;20.05;68.59;101803.50;5055690;28;20507;-81
2022/05/16 06:19:08;;;;;;;5.25;4.20;;;;;;;20.07;68.81;101808.88;5071228;28;20033;-82
2022/05/16 06:21:35;;;;;;;6.38;4.40;;;;;;;20.03;68.66;101799.91;5053746;28;20405;-82
2022/05/16 06:24:00;;;;;;;5.35;4.43;;;;;;;20.07;68.84;101800.91;5071080;28;20032;-82
2022/05/16 06:26:27;;;;;;;5.15;4.35;;;;;;;20.10;68.83;101806.31;5053165;28;20029;-82
2022/05/16 06:28:52;;;;;;;;;;;;;;;20.15;68.56;101804.72;5073244;28;20029;-81
2022/05/16 06:31:18;;;;;;;4.55;4.15;;;;;;;20.11;68.73;101806.34;5072408;28;20043;-81
2022/05/16 06:33:47;;;;;;;4.60;4.15;;;;;;;20.08;68.70;101806.25;5073242;28;20024;-81
2022/05/16 06:36:13;;;;;;;5.57;4.50;;;;;;;20.07;68.78;101804.47;5072896;28;20029;-81
2022/05/16 06:38:39;;;;;;;5.13;4.63;;;;;;;20.05;68.80;101794.66;5072681;28;20397;-81
2022/05/16 06:41:05;;;;;;;4.90;4.40;;;;;;;20.10;68.84;101801.91;5072159;28;20021;-81
2022/05/16 06:43:31;;;;;;;6.32;4.88;;;;;;;20.12;68.61;101799.28;5072716;28;20074;-81
2022/05/16 06:45:57;;;;;;;7.30;4.60;;;;;;;20.13;68.70;101811.72;5082215;28;20051;-81
2022/05/16 06:48:23;;;;;;;4.57;4.13;;;;;;;20.14;68.80;101805.56;5063281;28;20024;-81
2022/05/16 06:50:49;;;;;;;5.32;4.13;;;;;;;20.10;68.89;101798.34;5055189;28;20067;-81
2022/05/16 06:53:19;;;;;;;5.30;4.63;;;;;;;20.13;69.02;101807.31;5077513;28;20031;-81
2022/05/16 06:55:44;;;;;;;4.75;4.35;;;;;;;20.13;68.84;101802.00;5062982;28;20024;-81
2022/05/16 06:58:10;;;;;;;5.22;4.72;;;;;;;20.16;69.02;101800.31;5070583;28;20290;-82
2022/05/16 07:00:36;;;;;;;4.78;4.35;;;;;;;20.13;69.23;101804.66;5072260;28;20024;-81
2022/05/16 07:03:03;;;;;;;5.20;4.43;;;;;;;20.14;69.17;101802.91;5085487;28;20099;-81
2022/05/16 07:05:29;;;;;;;5.28;4.50;;;;;;;20.06;69.32;101802.66;5082044;28;20086;-81
2022/05/16 07:07:57;;;;;;;5.07;4.55;;;;;;;20.13;69.28;101809.97;5084080;28;20036;-81
2022/05/16 07:10:24;;;;;;;5.10;4.60;;;;;;;20.12;69.18;101807.25;5081016;28;20048;-81
2022/05/16 07:12:50;;;;;;;5.93;4.80;;;;;;;20.12;69.54;101808.16;5078841;28;20033;-81
2022/05/16 07:15:16;;;;;;;5.43;4.72;;;;;;;20.14;69.40;101808.19;5092066;28;20024;-81
2022/05/16 07:17:43;;;;;;;6.30;4.90;;;;;;;20.18;69.20;101810.09;5074470;28;20532;-81
2022/05/16 07:20:10;;;;;;;5.85;4.70;;;;;;;20.12;69.39;101801.94;5069493;28;20028;-81
2022/05/16 07:22:35;;;;;;;5.05;4.40;;;;;;;20.10;69.55;101806.31;5070794;28;20031;-81
2022/05/16 07:25:01;;;;;;;5.22;4.72;;;;;;;20.09;69.61;101802.75;5054107;28;20059;-81
2022/05/16 07:30:12;;;;;;;5.78;4.68;;;;;;;19.91;69.99;101786.25;5061588;28;20043;-82
2022/05/16 07:32:41;;;;;;;4.95;4.25;;;;;;;20.03;70.05;101813.16;5081968;28;20381;-81
2022/05/16 07:35:10;;;;;;;5.25;4.53;;;;;;;19.84;70.16;101787.81;5072244;28;20480;-81
2022/05/16 07:37:36;;;;;;;5.22;4.72;;;;;;;19.79;70.15;101780.56;5072904;28;20032;-81
2022/05/16 07:40:04;;;;;;;6.68;4.72;;;;;;;19.93;70.19;101809.31;5090225;28;20027;-82
2022/05/16 07:42:29;;;;;;;6.57;4.68;;;;;;;19.93;70.62;101816.38;5085303;28;20119;-81
2022/05/16 07:44:55;;;;;;;4.82;4.43;;;;;;;19.88;70.58;101805.63;5089944;28;20107;-81
2022/05/16 07:47:21;;;;;;;4.90;4.40;;;;;;;19.93;70.33;101805.75;5069122;28;20561;-81
2022/05/16 07:49:46;;;;;;;5.10;4.60;;;;;;;19.92;70.14;101810.19;5087966;28;20031;-82
2022/05/16 07:52:12;;;;;;;4.93;4.30;;;;;;;19.95;70.13;101808.47;5070419;28;20028;-81
2022/05/16 07:54:38;;;;;;;5.43;4.60;;;;;;;19.90;70.13;101801.28;5071785;28;20051;-81
2022/05/16 07:57:04;;;;;;;4.78;4.20;;;;;;;19.99;70.10;101813.03;5079512;28;20036;-80
2022/05/16 07:59:34;;;;;;;5.07;4.55;;;;;;;20.04;69.97;101822.00;5069108;28;20025;-81
2022/05/16 08:01:59;;;;;;;5.05;4.55;;;;;;;20.02;69.89;101821.06;5045005;28;20029;-82
2022/05/16 08:04:28;;;;;;;5.43;4.70;;;;;;;20.01;70.16;101819.28;5066819;28;20024;-81
2022/05/16 08:06:53;;;;;;;6.13;4.30;;;;;;;19.97;70.17;101815.63;5052833;28;20524;-82
2022/05/16 08:12:06;;;;;;;7.00;5.40;;;;;;;20.04;69.63;101800.81;5087763;28;20075;-83
2022/05/16 08:14:33;;;;;;;;;;;;;;;20.32;69.18;101830.00;5096938;28;20028;-86
2022/05/16 08:16:59;;;;;;;9.40;8.38;;;;;;;20.34;68.56;101830.94;5098698;28;20402;-81
2022/05/16 08:19:27;;;;;;;8.18;7.32;;;;;;;20.24;68.96;101827.97;5068551;28;20093;-81
2022/05/16 08:21:55;;;;;;;9.35;7.78;;;;;;;20.09;69.41;101818.66;5081920;28;20125;-80
2022/05/16 08:24:20;;;;;;;8.73;7.45;;;;;;;20.15;69.59;101828.59;5090185;28;20024;-81
2022/05/16 08:26:46;;;;;;;8.63;7.32;;;;;;;20.10;69.77;101824.88;5096437;28;20043;-81
2022/05/16 08:29:12;;;;;;;8.20;7.07;;;;;;;20.19;69.45;101829.56;5096224;28;20024;-81
2022/05/16 08:31:37;;;;;;;8.73;7.00;;;;;;;20.18;69.61;101835.72;5103398;28;20073;-81
2022/05/16 08:34:03;;;;;;;7.93;7.13;;;;;;;20.15;69.65;101817.97;5098382;28;20403;-80
2022/05/16 08:42:02;;;;;;;7.30;6.15;;;;;;;20.26;69.35;101819.19;5095281;28;20069;-81
2022/05/16 08:44:40;;;;;;;6.65;6.05;;;;;;;20.20;69.59;101824.31;5096784;28;20035;-80
2022/05/16 08:47:35;;;;;;;6.55;5.95;;;;;;;20.29;69.46;101823.69;5085701;28;20488;-80
2022/05/16 08:50:14;;;;;;;6.85;6.25;;;;;;;20.26;69.34;101811.25;5077470;28;20101;-81
2022/05/16 08:52:52;;;;;;;8.52;5.50;;;;;;;20.27;69.27;101815.69;5054274;28;20503;-80
2022/05/16 08:55:18;;;;;;;6.65;6.05;;;;;;;20.30;69.42;101823.75;5076109;28;20052;-80
2022/05/16 08:57:59;;;;;;;9.02;5.80;;;;;;;20.34;69.41;101819.44;5096632;28;20031;-80
2022/05/16 09:00:56;;;;;;;7.00;6.30;;;;;;;20.31;69.46;101824.63;5096837;28;20063;-80
2022/05/16 09:03:26;;;;;;;6.40;5.80;;;;;;;20.19;69.95;101803.94;5070694;28;20110;-80
2022/05/16 09:06:04;;;;;;;6.72;6.03;;;;;;;20.31;69.77;101816.69;5057659;28;20031;-80
2022/05/16 09:08:53;;;;;;;7.20;6.07;;;;;;;20.36;69.48;101827.44;5083954;28;20496;-80
2022/05/16 09:11:35;;;;;;;6.97;6.13;;;;;;;20.38;69.71;101815.13;5075737;28;20043;-80
2022/05/16 09:14:07;;;;;;;6.88;6.18;;;;;;;20.39;69.51;101823.13;5058096;28;20551;-81
2022/05/16 09:16:52;;;;;;;6.93;6.22;;;;;;;20.39;69.50;101822.25;5053225;28;20032;-81
2022/05/16 09:19:51;;;;;;;7.60;6.85;;;;;;;20.40;69.86;101808.09;5056024;28;20044;-80
2022/05/16 09:22:44;;;;;;;7.47;6.78;;;;;;;20.41;70.01;101810.81;5074501;28;20033;-80
2022/05/16 09:25:24;;;;;;;7.40;6.65;;;;;;;20.32;70.03;101791.97;5074475;28;20029;-81
2022/05/16 09:30:44;;;;;;;8.15;6.20;;;;;;;20.39;69.08;101793.94;5060020;28;20044;-81
2022/05/16 09:33:19;;;;;;;7.43;5.90;;;;;;;20.38;69.34;101784.16;5036600;28;20021;-81
2022/05/16 09:36:06;;;;;;;7.68;6.53;;;;;;;20.44;68.92;101802.94;5036316;28;20021;-80
2022/05/16 09:38:32;;;;;;;7.28;6.22;;;;;;;20.40;69.50;101798.38;5053270;28;20021;-80
2022/05/16 09:41:10;;;;;;;7.00;6.03;;;;;;;20.36;69.42;101799.13;5051750;28;20089;-81
2022/05/16 09:43:44;;;;;;;7.18;6.30;;;;;;;20.42;68.99;101790.47;5055107;28;20029;-80
2022/05/16 09:46:32;;;;;;;8.95;6.70;;;;;;;20.44;69.11;101792.31;5073419;28;20067;-81
2022/05/16 09:49:22;;;;;;;7.53;6.20;;;;;;;20.47;68.63;101791.53;5073511;28;20513;-80
2022/05/16 09:51:52;;;;;;;6.95;6.28;;;;;;;20.49;69.08;101788.06;5046008;28;20132;-80
2022/05/16 09:54:28;;;;;;;7.78;6.88;;;;;;;20.45;69.02;101785.28;5035905;28;20104;-80
2022/05/16 09:57:16;;;;;;;6.72;6.03;;;;;;;20.45;69.62;101786.19;5053156;28;20117;-80
2022/05/16 09:59:52;;;;;;;6.93;6.20;;;;;;;20.42;69.58;101785.16;5058138;28;20090;-80
2022/05/16 10:02:28;;;;;;;7.53;6.75;;;;;;;20.49;70.28;101782.75;5073325;28;20082;-81
2022/05/16 10:05:00;;;;;;;6.57;5.90;;;;;;;20.49;69.71;101777.44;5073083;28;20025;-82
2022/05/16 10:07:37;;;;;;;7.50;6.70;;;;;;;20.47;70.13;101779.16;5073195;28;20025;-81
2022/05/16 10:10:02;;;;;;;;;;;;;;;20.44;69.90;101781.69;5069794;28;20102;-81
2022/05/16 10:12:29;;;;;;;7.07;6.38;;;;;;;20.44;69.83;101779.06;5073252;28;19912;-81
2022/05/16 10:14:55;;;;;;;6.63;6.03;;;;;;;20.40;70.28;101771.84;5055307;28;20523;-81
2022/05/16 10:17:32;;;;;;;6.43;5.82;;;;;;;20.30;69.99;101754.78;5073382;28;20033;-82
2022/05/16 10:20:03;;;;;;;7.10;6.40;;;;;;;20.46;69.57;101769.38;5080384;28;20071;-80
2022/05/16 10:22:30;;;;;;;7.53;6.63;;;;;;;20.49;69.67;101768.59;5075148;28;20024;-79
2022/05/16 10:24:57;;;;;;;7.07;6.43;;;;;;;20.48;69.81;101766.78;5074602;28;20074;-81
2022/05/16 10:27:29;;;;;;;7.70;6.50;;;;;;;20.38;69.76;101747.03;5075409;28;20111;-81
2022/05/16 10:29:57;;;;;;;7.53;6.43;;;;;;;20.45;69.81;101748.13;5092804;28;20515;-81
2022/05/16 10:35:19;;;;;;;7.38;6.65;;;;;;;20.50;69.33;101752.69;5093741;28;20118;-80
2022/05/16 10:37:46;;;;;;;7.63;6.72;;;;;;;20.55;69.33;101747.50;5075367;28;20020;-81
2022/05/16 10:40:28;;;;;;;7.80;7.00;;;;;;;20.57;69.37;101748.47;5093161;28;20131;-81
2022/05/16 10:43:02;;;;;;;7.93;6.35;;;;;;;20.53;69.69;101746.56;5093638;28;20032;-81
2022/05/16 10:45:30;;;;;;;6.90;6.20;;;;;;;20.48;69.91;101748.22;5093300;28;20058;-80
2022/05/16 10:48:01;;;;;;;8.05;6.75;;;;;;;20.47;70.07;101741.13;5075071;28;20404;-81
2022/05/16 10:50:28;;;;;;;6.82;5.95;;;;;;;20.50;69.89;101744.72;5092597;28;20107;-79
2022/05/16 10:53:05;;;;;;;7.18;6.57;;;;;;;20.49;70.14;101742.06;5074975;28;20510;-81
2022/05/16 10:55:41;;;;;;;7.70;6.50;;;;;;;20.45;70.27;101737.53;5093121;28;20027;-81
2022/05/16 10:58:15;;;;;;;7.53;6.72;;;;;;;20.55;69.82;101736.91;5075336;28;20027;-80
2022/05/16 11:01:11;;;;;;;7.95;6.15;;;;;;;20.51;70.00;101729.72;5074827;28;20107;-81
2022/05/16 11:03:46;;;;;;;7.00;6.30;;;;;;;20.54;69.79;101737.78;5057282;28;20040;-80
2022/05/16 11:06:30;;;;;;;7.55;6.40;;;;;;;20.50;70.09;101735.88;5074984;28;20096;-81
2022/05/16 11:09:05;;;;;;;8.68;6.72;;;;;;;20.51;70.18;101741.25;5092772;28;20028;-81
2022/05/16 11:11:46;;;;;;;6.90;6.20;;;;;;;20.52;70.17;101732.41;5070927;28;20098;-80
2022/05/16 11:14:30;;;;;;;6.78;6.10;;;;;;;20.60;69.75;101738.00;5072447;28;20453;-80
2022/05/16 11:17:19;;;;;;;8.70;6.78;;;;;;;20.63;69.42;101735.41;5072179;28;20028;-81
2022/05/16 11:19:53;;;;;;;7.95;7.15;;;;;;;20.63;69.56;101730.09;5051398;28;20040;-80
2022/05/16 11:22:28;;;;;;;7.88;7.07;;;;;;;20.64;69.57;101733.66;5074525;28;20112;-80
2022/05/16 11:25:05;;;;;;;8.70;7.45;;;;;;;20.64;69.38;101731.91;5092476;28;20039;-81
2022/05/16 11:27:49;;;;;;;7.72;7.03;;;;;;;20.64;69.38;101726.59;5092459;28;20058;-81
2022/05/16 11:30:24;;;;;;;8.57;7.40;;;;;;;20.65;69.41;101723.06;5092348;28;20028;-80
2022/05/16 11:33:17;;;;;;;9.38;7.45;;;;;;;20.66;69.91;101724.91;5074488;28;20024;-80
2022/05/16 11:35:47;;;;;;;8.52;7.43;;;;;;;20.64;69.57;101718.63;5092524;28;20047;-80
2022/05/16 11:38:36;;;;;;;9.13;7.50;;;;;;;20.64;69.52;101705.38;5092297;28;20028;-80
2022/05/16 11:41:21;;;;;;;7.35;6.65;;;;;;;20.67;69.66;101705.44;5074233;28;20032;-80
2022/05/16 11:43:49;;;;;;;7.78;6.72;;;;;;;20.62;70.19;101695.56;5092247;28;20093;-80
2022/05/16 11:46:20;;;;;;;7.80;7.00;;;;;;;20.60;70.09;101698.19;5092155;28;20107;-80
2022/05/16 11:49:08;;;;;;;7.43;6.72;;;;;;;20.60;70.36;101694.63;5092303;28;20028;-81
2022/05/16 11:51:58;;;;;;;7.18;6.47;;;;;;;20.61;70.26;101688.44;5091878;28;20028;-80
2022/05/16 11:54:26;;;;;;;7.57;6.78;;;;;;;20.60;70.13;101676.06;5092150;28;20024;-81
2022/05/16 12:02:28;;;;;;;7.43;6.65;;;;;;;20.63;70.06;101684.97;5092023;28;20716;-81
2022/05/16 12:05:21;;;;;;;7.45;6.70;;;;;;;20.60;70.12;101671.63;5091954;28;20028;-80
2022/05/16 12:07:52;;;;;;;6.80;6.20;;;;;;;20.64;70.36;101676.19;5091778;28;20465;-80
2022/05/16 12:10:24;;;;;;;9.15;7.28;;;;;;;20.64;70.41;101668.22;5073619;28;20044;-80
2022/05/16 12:13:17;;;;;;;8.50;7.53;;;;;;;20.64;70.38;101670.88;5091851;28;20715;-80
2022/05/16 12:15:44;;;;;;;7.50;6.70;;;;;;;20.62;70.42;101669.94;5074320;28;20036;-80
2022/05/16 12:18:38;;;;;;;8.00;7.20;;;;;;;20.65;70.45;101667.34;5091865;28;20099;-80